sensor_id;sensor_type;location;lat;lon;timestamp;pressure;altitude;pressure_sealevel;temperature
73662;BMP280;61956;52.540;13.382;2022-09-20T00:01:53;73613.81;;;9.64
73662;BMP280;61956;52.540;13.382;2022-09-20T00:04:22;73665.13;;;9.64
73662;BMP280;61956;52.540;13.382;2022-09-20T00:06:53;73604.44;;;9.62
73662;BMP280;61956;52.540;13.382;2022-09-20T00:09:22;74527.31;;;9.68
73662;BMP280;61956;52.540;13.382;2022-09-20T00:11:51;74078.81;;;9.64
73662;BMP280;61956;52.540;13.382;2022-09-20T00:14:21;74149.53;;;9.63
73662;BMP280;61956;52.540;13.382;2022-09-20T00:16:53;73447.47;;;9.57
73662;BMP280;61956;52.540;13.382;2022-09-20T00:19:22;74105.66;;;9.61
73662;BMP280;61956;52.540;13.382;2022-09-20T00:21:53;73525.84;;;9.56
73662;BMP280;61956;52.540;13.382;2022-09-20T00:24:22;73151.50;;;9.52
73662;BMP280;61956;52.540;13.382;2022-09-20T00:26:51;72916.78;;;9.48
73662;BMP280;61956;52.540;13.382;2022-09-20T00:29:20;72467.66;;;9.43
73662;BMP280;61956;52.540;13.382;2022-09-20T00:31:49;72721.50;;;9.43
73662;BMP280;61956;52.540;13.382;2022-09-20T00:34:18;72288.91;;;9.39
73662;BMP280;61956;52.540;13.382;2022-09-20T00:37:03;72853.72;;;9.42
73662;BMP280;61956;52.540;13.382;2022-09-20T00:39:32;72572.38;;;9.38
73662;BMP280;61956;52.540;13.382;2022-09-20T00:42:01;73160.84;;;9.41
73662;BMP280;61956;52.540;13.382;2022-09-20T00:44:49;72892.84;;;9.38
73662;BMP280;61956;52.540;13.382;2022-09-20T00:47:29;73163.78;;;9.39
73662;BMP280;61956;52.540;13.382;2022-09-20T00:50:13;72829.13;;;9.36
73662;BMP280;61956;52.540;13.382;2022-09-20T00:53:08;72402.63;;;9.30
73662;BMP280;61956;52.540;13.382;2022-09-20T00:55:43;72489.22;;;9.30
73662;BMP280;61956;52.540;13.382;2022-09-20T00:58:15;72638.44;;;9.30
73662;BMP280;61956;52.540;13.382;2022-09-20T01:00:47;72249.56;;;9.26
73662;BMP280;61956;52.540;13.382;2022-09-20T01:03:19;72253.59;;;9.25
73662;BMP280;61956;52.540;13.382;2022-09-20T01:05:52;72106.22;;;9.21
73662;BMP280;61956;52.540;13.382;2022-09-20T01:08:25;72041.63;;;9.21
73662;BMP280;61956;52.540;13.382;2022-09-20T01:10:54;72676.84;;;9.23
73662;BMP280;61956;52.540;13.382;2022-09-20T01:13:23;72408.63;;;9.21
73662;BMP280;61956;52.540;13.382;2022-09-20T01:15:53;72790.19;;;9.23
73662;BMP280;61956;52.540;13.382;2022-09-20T01:18:26;73514.50;;;9.27
73662;BMP280;61956;52.540;13.382;2022-09-20T01:20:58;73590.53;;;9.29
73662;BMP280;61956;52.540;13.382;2022-09-20T01:23:45;73344.72;;;9.27
73662;BMP280;61956;52.540;13.382;2022-09-20T01:26:45;73179.28;;;9.23
73662;BMP280;61956;52.540;13.382;2022-09-20T01:29:45;73380.94;;;9.25
73662;BMP280;61956;52.540;13.382;2022-09-20T01:32:33;73468.13;;;9.25
73662;BMP280;61956;52.540;13.382;2022-09-20T01:35:11;72884.28;;;9.20
73662;BMP280;61956;52.540;13.382;2022-09-20T01:37:52;73138.59;;;9.21
73662;BMP280;61956;52.540;13.382;2022-09-20T01:40:36;73191.34;;;9.20
73662;BMP280;61956;52.540;13.382;2022-09-20T01:43:18;72859.88;;;9.17
73662;BMP280;61956;52.540;13.382;2022-09-20T01:46:06;73205.03;;;9.18
73662;BMP280;61956;52.540;13.382;2022-09-20T01:48:44;73824.28;;;9.22
73662;BMP280;61956;52.540;13.382;2022-09-20T01:55:18;73431.19;;;9.19
73662;BMP280;61956;52.540;13.382;2022-09-20T01:58:27;73352.63;;;9.17
73662;BMP280;61956;52.540;13.382;2022-09-20T02:01:42;74209.50;;;9.22
73662;BMP280;61956;52.540;13.382;2022-09-20T02:08:02;74642.66;;;9.25
73662;BMP280;61956;52.540;13.382;2022-09-20T02:11:08;74642.09;;;9.24
73662;BMP280;61956;52.540;13.382;2022-09-20T02:14:02;74462.53;;;9.24
73662;BMP280;61956;52.540;13.382;2022-09-20T02:16:47;73732.06;;;9.17
73662;BMP280;61956;52.540;13.382;2022-09-20T02:19:46;74147.69;;;9.20
73662;BMP280;61956;52.540;13.382;2022-09-20T02:22:29;74355.41;;;9.20
73662;BMP280;61956;52.540;13.382;2022-09-20T02:25:17;74908.84;;;9.24
73662;BMP280;61956;52.540;13.382;2022-09-20T02:28:12;75552.84;;;9.29
73662;BMP280;61956;52.540;13.382;2022-09-20T02:30:54;76300.97;;;9.34
73662;BMP280;61956;52.540;13.382;2022-09-20T02:33:56;76219.41;;;9.35
73662;BMP280;61956;52.540;13.382;2022-09-20T02:36:52;76674.72;;;9.38
73662;BMP280;61956;52.540;13.382;2022-09-20T02:39:35;77171.63;;;9.43
73662;BMP280;61956;52.540;13.382;2022-09-20T02:42:17;77224.19;;;9.44
73662;BMP280;61956;52.540;13.382;2022-09-20T02:45:03;77792.63;;;9.50
73662;BMP280;61956;52.540;13.382;2022-09-20T02:47:39;77768.72;;;9.51
73662;BMP280;61956;52.540;13.382;2022-09-20T02:50:20;78193.06;;;9.54
73662;BMP280;61956;52.540;13.382;2022-09-20T02:53:06;77852.13;;;9.52
73662;BMP280;61956;52.540;13.382;2022-09-20T02:55:52;77726.25;;;9.52
73662;BMP280;61956;52.540;13.382;2022-09-20T02:58:42;77785.94;;;9.53
73662;BMP280;61956;52.540;13.382;2022-09-20T03:01:29;77848.19;;;9.53
73662;BMP280;61956;52.540;13.382;2022-09-20T03:04:19;77308.31;;;9.51
73662;BMP280;61956;52.540;13.382;2022-09-20T03:07:03;76960.03;;;9.47
73662;BMP280;61956;52.540;13.382;2022-09-20T03:09:43;76951.16;;;9.46
73662;BMP280;61956;52.540;13.382;2022-09-20T03:12:28;77271.97;;;9.48
73662;BMP280;61956;52.540;13.382;2022-09-20T03:15:18;77441.50;;;9.48
73662;BMP280;61956;52.540;13.382;2022-09-20T03:18:03;77537.72;;;9.49
73662;BMP280;61956;52.540;13.382;2022-09-20T03:20:42;78469.81;;;9.55
73662;BMP280;61956;52.540;13.382;2022-09-20T03:23:36;78427.94;;;9.57
73662;BMP280;61956;52.540;13.382;2022-09-20T03:26:26;79299.41;;;9.63
73662;BMP280;61956;52.540;13.382;2022-09-20T03:29:03;79470.19;;;9.66
73662;BMP280;61956;52.540;13.382;2022-09-20T03:31:45;79718.13;;;9.69
73662;BMP280;61956;52.540;13.382;2022-09-20T03:34:37;80093.34;;;9.74
73662;BMP280;61956;52.540;13.382;2022-09-20T03:37:28;79849.75;;;9.72
73662;BMP280;61956;52.540;13.382;2022-09-20T03:40:57;79969.91;;;9.74
73662;BMP280;61956;52.540;13.382;2022-09-20T03:43:55;79993.66;;;9.74
73662;BMP280;61956;52.540;13.382;2022-09-20T03:46:42;79994.25;;;9.75
73662;BMP280;61956;52.540;13.382;2022-09-20T03:52:42;80748.94;;;9.82
73662;BMP280;61956;52.540;13.382;2022-09-20T03:55:41;80842.06;;;9.84
73662;BMP280;61956;52.540;13.382;2022-09-20T03:58:34;81568.91;;;9.89
73662;BMP280;61956;52.540;13.382;2022-09-20T04:01:35;82357.13;;;9.98
73662;BMP280;61956;52.540;13.382;2022-09-20T04:04:23;82043.66;;;9.97
73662;BMP280;61956;52.540;13.382;2022-09-20T04:07:08;82133.03;;;10.00
73662;BMP280;61956;52.540;13.382;2022-09-20T04:10:12;82086.69;;;10.00
73662;BMP280;61956;52.540;13.382;2022-09-20T04:13:11;81485.00;;;9.97
73662;BMP280;61956;52.540;13.382;2022-09-20T04:15:59;81173.00;;;9.94
73662;BMP280;61956;52.540;13.382;2022-09-20T04:18:37;81330.56;;;9.97
73662;BMP280;61956;52.540;13.382;2022-09-20T04:21:16;81189.06;;;9.94
73662;BMP280;61956;52.540;13.382;2022-09-20T04:23:58;81030.84;;;9.93
73662;BMP280;61956;52.540;13.382;2022-09-20T04:26:35;81249.50;;;9.95
73662;BMP280;61956;52.540;13.382;2022-09-20T04:29:32;80805.69;;;9.92
73662;BMP280;61956;52.540;13.382;2022-09-20T04:32:14;81011.56;;;9.92
73662;BMP280;61956;52.540;13.382;2022-09-20T04:34:52;81070.06;;;9.94
73662;BMP280;61956;52.540;13.382;2022-09-20T04:37:43;80933.66;;;9.94
73662;BMP280;61956;52.540;13.382;2022-09-20T04:40:23;81154.38;;;9.93
73662;BMP280;61956;52.540;13.382;2022-09-20T04:47:06;80801.16;;;9.93
73662;BMP280;61956;52.540;13.382;2022-09-20T04:50:41;80501.53;;;9.90
73662;BMP280;61956;52.540;13.382;2022-09-20T04:57:23;80423.22;;;9.87
73662;BMP280;61956;52.540;13.382;2022-09-20T05:00:08;80653.34;;;9.90
73662;BMP280;61956;52.540;13.382;2022-09-20T05:03:09;80782.00;;;9.90
73662;BMP280;61956;52.540;13.382;2022-09-20T05:06:25;81037.28;;;9.92
73662;BMP280;61956;52.540;13.382;2022-09-20T05:09:33;81232.19;;;9.94
73662;BMP280;61956;52.540;13.382;2022-09-20T05:12:33;80551.75;;;9.89
73662;BMP280;61956;52.540;13.382;2022-09-20T05:15:25;80484.88;;;9.89
73662;BMP280;61956;52.540;13.382;2022-09-20T05:18:35;80740.22;;;9.89
73662;BMP280;61956;52.540;13.382;2022-09-20T05:21:43;80534.47;;;9.87
73662;BMP280;61956;52.540;13.382;2022-09-20T05:24:34;81086.94;;;9.91
73662;BMP280;61956;52.540;13.382;2022-09-20T05:27:28;80970.47;;;9.90
73662;BMP280;61956;52.540;13.382;2022-09-20T05:30:29;81071.47;;;9.91
73662;BMP280;61956;52.540;13.382;2022-09-20T05:33:10;81680.03;;;9.96
73662;BMP280;61956;52.540;13.382;2022-09-20T05:35:59;82265.63;;;10.01
73662;BMP280;61956;52.540;13.382;2022-09-20T05:38:43;83125.81;;;10.07
73662;BMP280;61956;52.540;13.382;2022-09-20T05:41:22;83555.41;;;10.13
73662;BMP280;61956;52.540;13.382;2022-09-20T05:44:09;83854.97;;;10.17
73662;BMP280;61956;52.540;13.382;2022-09-20T05:46:53;84373.09;;;10.22
73662;BMP280;61956;52.540;13.382;2022-09-20T05:49:43;84485.28;;;10.27
73662;BMP280;61956;52.540;13.382;2022-09-20T05:52:36;84641.94;;;10.28
73662;BMP280;61956;52.540;13.382;2022-09-20T05:55:34;85448.66;;;10.36
73662;BMP280;61956;52.540;13.382;2022-09-20T05:58:29;85606.16;;;10.40
73662;BMP280;61956;52.540;13.382;2022-09-20T06:01:09;85502.97;;;10.40
73662;BMP280;61956;52.540;13.382;2022-09-20T06:03:48;86069.53;;;10.47
73662;BMP280;61956;52.540;13.382;2022-09-20T06:06:28;85737.91;;;10.46
73662;BMP280;61956;52.540;13.382;2022-09-20T06:09:36;86012.25;;;10.51
73662;BMP280;61956;52.540;13.382;2022-09-20T06:12:34;85907.09;;;10.51
73662;BMP280;61956;52.540;13.382;2022-09-20T06:15:18;85764.53;;;10.51
73662;BMP280;61956;52.540;13.382;2022-09-20T06:17:58;85803.28;;;10.53
73662;BMP280;61956;52.540;13.382;2022-09-20T06:20:36;86335.75;;;10.57
73662;BMP280;61956;52.540;13.382;2022-09-20T06:23:16;86009.22;;;10.56
73662;BMP280;61956;52.540;13.382;2022-09-20T06:25:49;86115.13;;;10.58
73662;BMP280;61956;52.540;13.382;2022-09-20T06:28:25;86334.00;;;10.62
73662;BMP280;61956;52.540;13.382;2022-09-20T06:30:58;85337.00;;;10.55
73662;BMP280;61956;52.540;13.382;2022-09-20T06:33:32;85034.44;;;10.53
73662;BMP280;61956;52.540;13.382;2022-09-20T06:36:11;84900.28;;;10.53
73662;BMP280;61956;52.540;13.382;2022-09-20T06:39:04;85360.88;;;10.56
73662;BMP280;61956;52.540;13.382;2022-09-20T06:41:56;85838.97;;;10.58
73662;BMP280;61956;52.540;13.382;2022-09-20T06:44:27;86188.88;;;10.63
73662;BMP280;61956;52.540;13.382;2022-09-20T06:46:56;86764.16;;;10.69
73662;BMP280;61956;52.540;13.382;2022-09-20T06:49:26;86447.84;;;10.68
73662;BMP280;61956;52.540;13.382;2022-09-20T06:51:55;86471.75;;;10.69
73662;BMP280;61956;52.540;13.382;2022-09-20T06:54:26;86400.81;;;10.70
73662;BMP280;61956;52.540;13.382;2022-09-20T06:56:56;86696.56;;;10.73
73662;BMP280;61956;52.540;13.382;2022-09-20T06:59:27;86892.34;;;10.76
73662;BMP280;61956;52.540;13.382;2022-09-20T07:01:56;86867.78;;;10.75
73662;BMP280;61956;52.540;13.382;2022-09-20T07:04:25;86682.53;;;10.76
73662;BMP280;61956;52.540;13.382;2022-09-20T07:06:58;86013.00;;;10.71
73662;BMP280;61956;52.540;13.382;2022-09-20T07:09:30;86182.81;;;10.73
73662;BMP280;61956;52.540;13.382;2022-09-20T07:11:59;85957.47;;;10.70
73662;BMP280;61956;52.540;13.382;2022-09-20T07:14:28;85248.25;;;10.66
73662;BMP280;61956;52.540;13.382;2022-09-20T07:16:57;84965.00;;;10.63
73662;BMP280;61956;52.540;13.382;2022-09-20T07:19:28;85476.63;;;10.65
73662;BMP280;61956;52.540;13.382;2022-09-20T07:21:57;86717.34;;;10.75
73662;BMP280;61956;52.540;13.382;2022-09-20T07:24:26;86754.25;;;10.77
73662;BMP280;61956;52.540;13.382;2022-09-20T07:27:00;86005.34;;;10.73
73662;BMP280;61956;52.540;13.382;2022-09-20T07:29:31;85940.81;;;10.73
73662;BMP280;61956;52.540;13.382;2022-09-20T07:32:01;86016.31;;;10.74
73662;BMP280;61956;52.540;13.382;2022-09-20T07:34:30;86142.25;;;10.75
73662;BMP280;61956;52.540;13.382;2022-09-20T07:36:59;86594.16;;;10.77
73662;BMP280;61956;52.540;13.382;2022-09-20T07:39:28;87186.53;;;10.84
73662;BMP280;61956;52.540;13.382;2022-09-20T07:42:00;88194.66;;;10.92
73662;BMP280;61956;52.540;13.382;2022-09-20T07:44:30;89542.47;;;11.04
73662;BMP280;61956;52.540;13.382;2022-09-20T07:47:00;90021.03;;;11.12
73662;BMP280;61956;52.540;13.382;2022-09-20T07:49:29;91452.38;;;11.27
73662;BMP280;61956;52.540;13.382;2022-09-20T07:51:57;91504.91;;;11.33
73662;BMP280;61956;52.540;13.382;2022-09-20T07:54:26;91906.56;;;11.41
73662;BMP280;61956;52.540;13.382;2022-09-20T07:56:56;92402.34;;;11.49
73662;BMP280;61956;52.540;13.382;2022-09-20T07:59:27;91920.56;;;11.49
73662;BMP280;61956;52.540;13.382;2022-09-20T08:01:56;90632.31;;;11.43
73662;BMP280;61956;52.540;13.382;2022-09-20T08:04:26;91117.56;;;11.47
73662;BMP280;61956;52.540;13.382;2022-09-20T08:06:55;92469.97;;;11.60
73662;BMP280;61956;52.540;13.382;2022-09-20T08:09:26;93381.06;;;11.71
73662;BMP280;61956;52.540;13.382;2022-09-20T08:11:55;94247.16;;;11.83
73662;BMP280;61956;52.540;13.382;2022-09-20T08:14:24;94414.09;;;11.93
73662;BMP280;61956;52.540;13.382;2022-09-20T08:16:55;94216.19;;;11.96
73662;BMP280;61956;52.540;13.382;2022-09-20T08:19:24;95018.19;;;12.05
73662;BMP280;61956;52.540;13.382;2022-09-20T08:21:55;95639.28;;;12.17
73662;BMP280;61956;52.540;13.382;2022-09-20T08:24:24;95287.69;;;12.21
73662;BMP280;61956;52.540;13.382;2022-09-20T08:26:53;94674.41;;;12.21
73662;BMP280;61956;52.540;13.382;2022-09-20T08:29:22;95815.97;;;12.34
73662;BMP280;61956;52.540;13.382;2022-09-20T08:31:54;95686.88;;;12.39
73662;BMP280;61956;52.540;13.382;2022-09-20T08:34:24;95959.63;;;12.46
73662;BMP280;61956;52.540;13.382;2022-09-20T08:36:53;95756.34;;;12.49
73662;BMP280;61956;52.540;13.382;2022-09-20T08:39:22;95915.94;;;12.55
73662;BMP280;61956;52.540;13.382;2022-09-20T08:41:53;96612.50;;;12.66
73662;BMP280;61956;52.540;13.382;2022-09-20T08:44:27;97196.50;;;12.77
73662;BMP280;61956;52.540;13.382;2022-09-20T08:47:09;97177.78;;;12.84
73662;BMP280;61956;52.540;13.382;2022-09-20T08:49:46;97211.78;;;12.91
73662;BMP280;61956;52.540;13.382;2022-09-20T08:52:22;97343.13;;;12.97
73662;BMP280;61956;52.540;13.382;2022-09-20T08:55:00;97718.38;;;13.06
73662;BMP280;61956;52.540;13.382;2022-09-20T08:57:31;98141.13;;;13.18
73662;BMP280;61956;52.540;13.382;2022-09-20T09:00:03;97466.03;;;13.19
73662;BMP280;61956;52.540;13.382;2022-09-20T09:02:37;97422.69;;;13.23
73662;BMP280;61956;52.540;13.382;2022-09-20T09:05:21;97488.59;;;13.27
73662;BMP280;61956;52.540;13.382;2022-09-20T09:08:01;98227.16;;;13.39
73662;BMP280;61956;52.540;13.382;2022-09-20T09:10:36;98320.91;;;13.47
73662;BMP280;61956;52.540;13.382;2022-09-20T09:13:14;99135.59;;;13.59
73662;BMP280;61956;52.540;13.382;2022-09-20T09:15:54;98986.44;;;13.67
73662;BMP280;61956;52.540;13.382;2022-09-20T09:18:32;99174.63;;;13.78
73662;BMP280;61956;52.540;13.382;2022-09-20T09:21:03;100519.47;;;13.95
73662;BMP280;61956;52.540;13.382;2022-09-20T09:23:40;100153.34;;;14.01
73662;BMP280;61956;52.540;13.382;2022-09-20T09:26:18;100281.09;;;14.11
73662;BMP280;61956;52.540;13.382;2022-09-20T09:29:07;99957.66;;;14.16
73662;BMP280;61956;52.540;13.382;2022-09-20T09:31:37;99492.63;;;14.16
73662;BMP280;61956;52.540;13.382;2022-09-20T09:34:22;100857.03;;;14.36
73662;BMP280;61956;52.540;13.382;2022-09-20T09:36:53;101427.38;;;14.50
73662;BMP280;61956;52.540;13.382;2022-09-20T09:39:26;100087.91;;;14.47
73662;BMP280;61956;52.540;13.382;2022-09-20T09:41:57;100167.50;;;14.54
73662;BMP280;61956;52.540;13.382;2022-09-20T09:44:29;99572.44;;;14.54
73662;BMP280;61956;52.540;13.382;2022-09-20T09:47:00;101465.09;;;14.76
73662;BMP280;61956;52.540;13.382;2022-09-20T09:49:32;102378.75;;;14.94
73662;BMP280;61956;52.540;13.382;2022-09-20T09:52:05;98969.72;;;14.77
73662;BMP280;61956;52.540;13.382;2022-09-20T09:54:44;98188.72;;;14.68
73662;BMP280;61956;52.540;13.382;2022-09-20T09:57:38;102536.66;;;15.12
73662;BMP280;61956;52.540;13.382;2022-09-20T10:00:20;100685.31;;;15.11
73662;BMP280;61956;52.540;13.382;2022-09-20T10:06:16;99049.25;;;15.02
73662;BMP280;61956;52.540;13.382;2022-09-20T10:09:00;99836.44;;;15.15
73662;BMP280;61956;52.540;13.382;2022-09-20T10:11:47;100060.03;;;15.21
73662;BMP280;61956;52.540;13.382;2022-09-20T10:14:36;98787.97;;;15.16
73662;BMP280;61956;52.540;13.382;2022-09-20T10:17:39;100503.66;;;15.34
73662;BMP280;61956;52.540;13.382;2022-09-20T10:20:27;101295.66;;;15.51
73662;BMP280;61956;52.540;13.382;2022-09-20T10:23:17;101198.97;;;15.61
73662;BMP280;61956;52.540;13.382;2022-09-20T10:26:03;100431.19;;;15.60
73662;BMP280;61956;52.540;13.382;2022-09-20T10:28:49;99582.34;;;15.55
73662;BMP280;61956;52.540;13.382;2022-09-20T10:31:39;96914.22;;;15.32
73662;BMP280;61956;52.540;13.382;2022-09-20T10:35:06;96982.03;;;15.28
73662;BMP280;61956;52.540;13.382;2022-09-20T10:37:56;96098.00;;;15.22
73662;BMP280;61956;52.540;13.382;2022-09-20T10:41:12;95200.69;;;15.11
73662;BMP280;61956;52.540;13.382;2022-09-20T10:44:10;92760.22;;;14.83
73662;BMP280;61956;52.540;13.382;2022-09-20T10:46:55;91190.06;;;14.58
73662;BMP280;61956;52.540;13.382;2022-09-20T10:49:35;91781.06;;;14.55
73662;BMP280;61956;52.540;13.382;2022-09-20T10:52:32;92530.97;;;14.57
73662;BMP280;61956;52.540;13.382;2022-09-20T10:55:20;92783.50;;;14.57
73662;BMP280;61956;52.540;13.382;2022-09-20T10:58:24;92493.03;;;14.50
73662;BMP280;61956;52.540;13.382;2022-09-20T11:01:21;91524.16;;;14.39
73662;BMP280;61956;52.540;13.382;2022-09-20T11:04:11;90095.47;;;14.23
73662;BMP280;61956;52.540;13.382;2022-09-20T11:07:04;89115.00;;;14.07
73662;BMP280;61956;52.540;13.382;2022-09-20T11:09:43;85371.63;;;13.69
73662;BMP280;61956;52.540;13.382;2022-09-20T11:12:23;76792.78;;;12.81
73662;BMP280;61956;52.540;13.382;2022-09-20T11:15:03;73725.69;;;12.32
73662;BMP280;61956;52.540;13.382;2022-09-20T11:17:54;74066.00;;;12.11
73662;BMP280;61956;52.540;13.382;2022-09-20T11:20:35;75133.47;;;12.03
73662;BMP280;61956;52.540;13.382;2022-09-20T11:23:13;76884.75;;;12.06
73662;BMP280;61956;52.540;13.382;2022-09-20T11:25:48;76581.09;;;11.95
73662;BMP280;61956;52.540;13.382;2022-09-20T11:28:25;77419.88;;;11.94
73662;BMP280;61956;52.540;13.382;2022-09-20T11:31:05;77099.28;;;11.84
73662;BMP280;61956;52.540;13.382;2022-09-20T11:33:43;78698.34;;;11.89
73662;BMP280;61956;52.540;13.382;2022-09-20T11:36:22;79516.69;;;11.91
73662;BMP280;61956;52.540;13.382;2022-09-20T11:39:11;79965.13;;;11.91
73662;BMP280;61956;52.540;13.382;2022-09-20T11:41:45;81416.94;;;11.98
73662;BMP280;61956;52.540;13.382;2022-09-20T11:44:18;82061.19;;;12.03
73662;BMP280;61956;52.540;13.382;2022-09-20T11:46:54;82856.88;;;12.07
73662;BMP280;61956;52.540;13.382;2022-09-20T11:49:29;83833.19;;;12.15
73662;BMP280;61956;52.540;13.382;2022-09-20T11:52:31;85715.13;;;12.32
73662;BMP280;61956;52.540;13.382;2022-09-20T11:55:22;85850.44;;;12.34
73662;BMP280;61956;52.540;13.382;2022-09-20T11:58:04;88045.28;;;12.55
73662;BMP280;61956;52.540;13.382;2022-09-20T12:00:37;88449.38;;;12.63
73662;BMP280;61956;52.540;13.382;2022-09-20T12:03:22;89321.81;;;12.74
73662;BMP280;61956;52.540;13.382;2022-09-20T12:06:01;91333.81;;;12.96
73662;BMP280;61956;52.540;13.382;2022-09-20T12:08:48;92216.38;;;13.11
73662;BMP280;61956;52.540;13.382;2022-09-20T12:11:27;93455.50;;;13.29
73662;BMP280;61956;52.540;13.382;2022-09-20T12:14:02;94230.47;;;13.44
73662;BMP280;61956;52.540;13.382;2022-09-20T12:16:39;94408.19;;;13.53
73662;BMP280;61956;52.540;13.382;2022-09-20T12:19:13;94411.38;;;13.61
73662;BMP280;61956;52.540;13.382;2022-09-20T12:22:26;93943.88;;;13.65
73662;BMP280;61956;52.540;13.382;2022-09-20T12:28:13;92946.06;;;13.66
73662;BMP280;61956;52.540;13.382;2022-09-20T12:30:42;93698.47;;;13.72
73662;BMP280;61956;52.540;13.382;2022-09-20T12:33:18;94751.78;;;13.86
73662;BMP280;61956;52.540;13.382;2022-09-20T12:36:11;93810.69;;;13.83
73662;BMP280;61956;52.540;13.382;2022-09-20T12:38:59;93315.47;;;13.80
73662;BMP280;61956;52.540;13.382;2022-09-20T12:41:45;93345.09;;;13.83
73662;BMP280;61956;52.540;13.382;2022-09-20T12:44:29;93495.53;;;13.85
73662;BMP280;61956;52.540;13.382;2022-09-20T12:47:04;93650.34;;;13.89
73662;BMP280;61956;52.540;13.382;2022-09-20T12:49:49;94754.16;;;14.00
73662;BMP280;61956;52.540;13.382;2022-09-20T12:52:38;96656.00;;;14.22
73662;BMP280;61956;52.540;13.382;2022-09-20T12:55:30;98103.69;;;14.46
73662;BMP280;61956;52.540;13.382;2022-09-20T12:58:16;95592.34;;;14.36
73662;BMP280;61956;52.540;13.382;2022-09-20T13:01:27;92136.56;;;14.04
73662;BMP280;61956;52.540;13.382;2022-09-20T13:07:31;84682.88;;;13.19
73662;BMP280;61956;52.540;13.382;2022-09-20T13:10:17;82697.38;;;12.91
73662;BMP280;61956;52.540;13.382;2022-09-20T13:12:55;81246.03;;;12.65
73662;BMP280;61956;52.540;13.382;2022-09-20T13:15:28;81105.78;;;12.52
73662;BMP280;61956;52.540;13.382;2022-09-20T13:18:00;83785.13;;;12.65
73662;BMP280;61956;52.540;13.382;2022-09-20T13:20:32;85925.47;;;12.78
73662;BMP280;61956;52.540;13.382;2022-09-20T13:23:16;87970.63;;;12.95
73662;BMP280;61956;52.540;13.382;2022-09-20T13:25:49;88596.59;;;13.01
73662;BMP280;61956;52.540;13.382;2022-09-20T13:28:28;88721.91;;;13.04
73662;BMP280;61956;52.540;13.382;2022-09-20T13:31:26;88729.16;;;13.05
73662;BMP280;61956;52.540;13.382;2022-09-20T13:34:21;90085.84;;;13.19
73662;BMP280;61956;52.540;13.382;2022-09-20T13:36:53;92386.06;;;13.37
73662;BMP280;61956;52.540;13.382;2022-09-20T13:39:31;93225.13;;;13.53
73662;BMP280;61956;52.540;13.382;2022-09-20T13:42:10;93144.44;;;13.57
73662;BMP280;61956;52.540;13.382;2022-09-20T13:44:45;93464.25;;;13.66
73662;BMP280;61956;52.540;13.382;2022-09-20T13:47:24;92464.34;;;13.60
73662;BMP280;61956;52.540;13.382;2022-09-20T13:50:15;92841.38;;;13.65
73662;BMP280;61956;52.540;13.382;2022-09-20T13:52:52;94512.44;;;13.82
73662;BMP280;61956;52.540;13.382;2022-09-20T13:55:31;95283.75;;;13.96
73662;BMP280;61956;52.540;13.382;2022-09-20T13:58:05;95903.44;;;14.06
73662;BMP280;61956;52.540;13.382;2022-09-20T14:00:36;95802.97;;;14.13
73662;BMP280;61956;52.540;13.382;2022-09-20T14:03:16;94248.13;;;14.01
73662;BMP280;61956;52.540;13.382;2022-09-20T14:05:48;94142.09;;;14.02
73662;BMP280;61956;52.540;13.382;2022-09-20T14:08:23;93513.66;;;13.97
73662;BMP280;61956;52.540;13.382;2022-09-20T14:11:11;93437.22;;;13.95
73662;BMP280;61956;52.540;13.382;2022-09-20T14:13:46;93430.09;;;13.95
73662;BMP280;61956;52.540;13.382;2022-09-20T14:16:18;94720.94;;;14.08
73662;BMP280;61956;52.540;13.382;2022-09-20T14:18:49;95589.06;;;14.18
73662;BMP280;61956;52.540;13.382;2022-09-20T14:21:21;94889.66;;;14.17
73662;BMP280;61956;52.540;13.382;2022-09-20T14:23:53;94733.06;;;14.18
73662;BMP280;61956;52.540;13.382;2022-09-20T14:26:30;93355.00;;;14.06
73662;BMP280;61956;52.540;13.382;2022-09-20T14:29:28;92606.53;;;13.98
73662;BMP280;61956;52.540;13.382;2022-09-20T14:32:07;92128.41;;;13.91
73662;BMP280;61956;52.540;13.382;2022-09-20T14:34:57;92535.50;;;13.92
73662;BMP280;61956;52.540;13.382;2022-09-20T14:37:30;93291.38;;;13.98
73662;BMP280;61956;52.540;13.382;2022-09-20T14:40:04;94431.59;;;14.10
73662;BMP280;61956;52.540;13.382;2022-09-20T14:42:49;94483.59;;;14.13
73662;BMP280;61956;52.540;13.382;2022-09-20T14:45:23;94207.66;;;14.13
73662;BMP280;61956;52.540;13.382;2022-09-20T14:47:57;93126.44;;;14.05
73662;BMP280;61956;52.540;13.382;2022-09-20T14:50:31;91814.53;;;13.91
73662;BMP280;61956;52.540;13.382;2022-09-20T14:53:26;91909.78;;;13.89
73662;BMP280;61956;52.540;13.382;2022-09-20T14:55:58;91990.81;;;13.87
73662;BMP280;61956;52.540;13.382;2022-09-20T14:59:05;92241.84;;;13.88
73662;BMP280;61956;52.540;13.382;2022-09-20T15:01:56;92522.94;;;13.90
73662;BMP280;61956;52.540;13.382;2022-09-20T15:04:30;93031.41;;;13.95
73662;BMP280;61956;52.540;13.382;2022-09-20T15:07:04;92837.00;;;13.95
73662;BMP280;61956;52.540;13.382;2022-09-20T15:09:35;92603.84;;;13.92
73662;BMP280;61956;52.540;13.382;2022-09-20T15:12:08;93940.56;;;14.03
73662;BMP280;61956;52.540;13.382;2022-09-20T15:14:42;94263.88;;;14.11
73662;BMP280;61956;52.540;13.382;2022-09-20T15:17:14;94383.50;;;14.14
73662;BMP280;61956;52.540;13.382;2022-09-20T15:19:45;92981.22;;;14.03
73662;BMP280;61956;52.540;13.382;2022-09-20T15:22:14;92891.78;;;14.01
73662;BMP280;61956;52.540;13.382;2022-09-20T15:24:44;92902.19;;;14.01
73662;BMP280;61956;52.540;13.382;2022-09-20T15:27:13;92683.84;;;13.97
73662;BMP280;61956;52.540;13.382;2022-09-20T15:29:44;93104.63;;;14.02
73662;BMP280;61956;52.540;13.382;2022-09-20T15:32:14;91551.47;;;13.87
73662;BMP280;61956;52.540;13.382;2022-09-20T15:34:43;90223.47;;;13.74
73662;BMP280;61956;52.540;13.382;2022-09-20T15:37:12;88271.91;;;13.53
73662;BMP280;61956;52.540;13.382;2022-09-20T15:39:41;85835.41;;;13.27
73662;BMP280;61956;52.540;13.382;2022-09-20T15:42:09;83814.69;;;13.00
73662;BMP280;61956;52.540;13.382;2022-09-20T15:44:38;82878.03;;;12.82
73662;BMP280;61956;52.540;13.382;2022-09-20T15:47:10;81990.00;;;12.65